sensor_id;sensor_type;location;lat;lon;timestamp;P1;durP1;ratioP1;P2;durP2;ratioP2
69410;SDS011;56604;48.652;9.194;2023-03-01T00:01:48;19.63;;;10.40;;
69410;SDS011;56604;48.652;9.194;2023-03-01T00:04:17;20.43;;;10.30;;
69410;SDS011;56604;48.652;9.194;2023-03-01T00:06:42;17.33;;;10.10;;
69410;SDS011;56604;48.652;9.194;2023-03-01T00:09:11;15.80;;;10.20;;
69410;SDS011;56604;48.652;9.194;2023-03-01T00:11:38;20.77;;;10.17;;
69410;SDS011;56604;48.652;9.194;2023-03-01T00:14:03;14.67;;;10.90;;
69410;SDS011;56604;48.652;9.194;2023-03-01T00:16:37;16.70;;;10.33;;
69410;SDS011;56604;48.652;9.194;2023-03-01T00:19:06;15.60;;;10.17;;
69410;SDS011;56604;48.652;9.194;2023-03-01T00:21:32;22.40;;;11.53;;
69410;SDS011;56604;48.652;9.194;2023-03-01T00:24:00;20.93;;;10.80;;
69410;SDS011;56604;48.652;9.194;2023-03-01T00:26:26;18.67;;;10.20;;
69410;SDS011;56604;48.652;9.194;2023-03-01T00:28:52;21.43;;;10.77;;
69410;SDS011;56604;48.652;9.194;2023-03-01T00:31:21;19.07;;;10.83;;
69410;SDS011;56604;48.652;9.194;2023-03-01T00:33:48;17.57;;;10.37;;
69410;SDS011;56604;48.652;9.194;2023-03-01T00:36:18;18.90;;;10.73;;
69410;SDS011;56604;48.652;9.194;2023-03-01T00:38:44;20.30;;;11.00;;
69410;SDS011;56604;48.652;9.194;2023-03-01T00:41:11;17.03;;;10.00;;
69410;SDS011;56604;48.652;9.194;2023-03-01T00:43:40;15.23;;;10.40;;
69410;SDS011;56604;48.652;9.194;2023-03-01T00:46:07;21.80;;;11.47;;
69410;SDS011;56604;48.652;9.194;2023-03-01T00:48:34;18.23;;;10.60;;
69410;SDS011;56604;48.652;9.194;2023-03-01T00:51:04;18.23;;;10.57;;
69410;SDS011;56604;48.652;9.194;2023-03-01T00:53:30;25.43;;;10.20;;
69410;SDS011;56604;48.652;9.194;2023-03-01T00:55:56;16.70;;;11.20;;
69410;SDS011;56604;48.652;9.194;2023-03-01T00:58:22;26.03;;;10.87;;
69410;SDS011;56604;48.652;9.194;2023-03-01T01:00:48;17.77;;;10.00;;
69410;SDS011;56604;48.652;9.194;2023-03-01T01:03:13;19.77;;;11.20;;
69410;SDS011;56604;48.652;9.194;2023-03-01T01:05:38;20.80;;;11.50;;
69410;SDS011;56604;48.652;9.194;2023-03-01T01:08:04;18.30;;;11.37;;
69410;SDS011;56604;48.652;9.194;2023-03-01T01:10:29;16.97;;;10.70;;
69410;SDS011;56604;48.652;9.194;2023-03-01T01:12:54;18.60;;;10.20;;
69410;SDS011;56604;48.652;9.194;2023-03-01T01:15:19;16.80;;;9.80;;
69410;SDS011;56604;48.652;9.194;2023-03-01T01:17:45;17.03;;;10.30;;
69410;SDS011;56604;48.652;9.194;2023-03-01T01:20:10;16.60;;;10.90;;
69410;SDS011;56604;48.652;9.194;2023-03-01T01:22:36;19.50;;;11.37;;
69410;SDS011;56604;48.652;9.194;2023-03-01T01:25:01;23.13;;;10.30;;
69410;SDS011;56604;48.652;9.194;2023-03-01T01:27:26;17.37;;;10.03;;
69410;SDS011;56604;48.652;9.194;2023-03-01T01:29:55;16.90;;;10.47;;
69410;SDS011;56604;48.652;9.194;2023-03-01T01:32:20;17.87;;;10.70;;
69410;SDS011;56604;48.652;9.194;2023-03-01T01:34:45;21.87;;;10.70;;
69410;SDS011;56604;48.652;9.194;2023-03-01T01:37:11;18.90;;;10.80;;
69410;SDS011;56604;48.652;9.194;2023-03-01T01:39:37;19.70;;;10.63;;
69410;SDS011;56604;48.652;9.194;2023-03-01T01:42:02;20.63;;;11.30;;
69410;SDS011;56604;48.652;9.194;2023-03-01T01:44:28;18.33;;;11.07;;
69410;SDS011;56604;48.652;9.194;2023-03-01T01:46:58;23.20;;;11.90;;
69410;SDS011;56604;48.652;9.194;2023-03-01T01:49:28;16.90;;;11.00;;
69410;SDS011;56604;48.652;9.194;2023-03-01T01:52:02;24.67;;;10.60;;
69410;SDS011;56604;48.652;9.194;2023-03-01T01:54:51;19.80;;;11.77;;
69410;SDS011;56604;48.652;9.194;2023-03-01T01:57:26;22.23;;;11.27;;
69410;SDS011;56604;48.652;9.194;2023-03-01T01:59:55;16.77;;;10.10;;
69410;SDS011;56604;48.652;9.194;2023-03-01T02:02:24;17.80;;;10.00;;
69410;SDS011;56604;48.652;9.194;2023-03-01T02:04:52;17.47;;;11.00;;
69410;SDS011;56604;48.652;9.194;2023-03-01T02:07:23;19.73;;;11.47;;
69410;SDS011;56604;48.652;9.194;2023-03-01T02:09:50;18.50;;;11.20;;
69410;SDS011;56604;48.652;9.194;2023-03-01T02:12:18;17.97;;;10.60;;
69410;SDS011;56604;48.652;9.194;2023-03-01T02:14:46;18.17;;;10.57;;
69410;SDS011;56604;48.652;9.194;2023-03-01T02:17:12;18.60;;;11.07;;
69410;SDS011;56604;48.652;9.194;2023-03-01T02:19:57;18.50;;;10.40;;
69410;SDS011;56604;48.652;9.194;2023-03-01T02:22:34;24.90;;;11.37;;
69410;SDS011;56604;48.652;9.194;2023-03-01T02:25:24;19.70;;;11.20;;
69410;SDS011;56604;48.652;9.194;2023-03-01T02:30:36;21.40;;;12.37;;
69410;SDS011;56604;48.652;9.194;2023-03-01T02:33:02;22.57;;;11.77;;
69410;SDS011;56604;48.652;9.194;2023-03-01T02:35:30;21.00;;;12.13;;
69410;SDS011;56604;48.652;9.194;2023-03-01T02:37:59;33.33;;;11.30;;
69410;SDS011;56604;48.652;9.194;2023-03-01T02:40:27;19.67;;;11.23;;
69410;SDS011;56604;48.652;9.194;2023-03-01T02:42:54;21.03;;;11.63;;
69410;SDS011;56604;48.652;9.194;2023-03-01T02:45:21;24.27;;;10.20;;
69410;SDS011;56604;48.652;9.194;2023-03-01T02:47:48;20.57;;;11.57;;
69410;SDS011;56604;48.652;9.194;2023-03-01T02:55:46;20.03;;;12.00;;
69410;SDS011;56604;48.652;9.194;2023-03-01T02:58:11;25.53;;;10.53;;
69410;SDS011;56604;48.652;9.194;2023-03-01T03:00:38;20.70;;;12.00;;
69410;SDS011;56604;48.652;9.194;2023-03-01T03:03:10;22.57;;;13.30;;
69410;SDS011;56604;48.652;9.194;2023-03-01T03:05:39;25.43;;;13.43;;
69410;SDS011;56604;48.652;9.194;2023-03-01T03:08:04;27.30;;;12.90;;
69410;SDS011;56604;48.652;9.194;2023-03-01T03:10:34;33.13;;;11.63;;
69410;SDS011;56604;48.652;9.194;2023-03-01T03:13:03;25.90;;;13.53;;
69410;SDS011;56604;48.652;9.194;2023-03-01T03:15:32;21.70;;;12.63;;
69410;SDS011;56604;48.652;9.194;2023-03-01T03:18:01;22.57;;;12.87;;
69410;SDS011;56604;48.652;9.194;2023-03-01T03:20:28;24.33;;;13.60;;
69410;SDS011;56604;48.652;9.194;2023-03-01T03:22:55;22.00;;;13.40;;
69410;SDS011;56604;48.652;9.194;2023-03-01T03:25:21;23.00;;;12.00;;
69410;SDS011;56604;48.652;9.194;2023-03-01T03:27:48;18.80;;;11.87;;
69410;SDS011;56604;48.652;9.194;2023-03-01T03:30:16;21.23;;;11.60;;
69410;SDS011;56604;48.652;9.194;2023-03-01T03:32:44;19.70;;;11.80;;
69410;SDS011;56604;48.652;9.194;2023-03-01T03:35:20;24.70;;;12.30;;
69410;SDS011;56604;48.652;9.194;2023-03-01T03:37:49;20.97;;;11.27;;
69410;SDS011;56604;48.652;9.194;2023-03-01T03:40:33;21.40;;;12.17;;
69410;SDS011;56604;48.652;9.194;2023-03-01T03:43:03;22.83;;;12.50;;
69410;SDS011;56604;48.652;9.194;2023-03-01T03:45:30;23.10;;;12.60;;
69410;SDS011;56604;48.652;9.194;2023-03-01T03:47:58;19.27;;;11.57;;
69410;SDS011;56604;48.652;9.194;2023-03-01T03:50:24;20.77;;;12.40;;
69410;SDS011;56604;48.652;9.194;2023-03-01T03:52:49;22.83;;;13.13;;
69410;SDS011;56604;48.652;9.194;2023-03-01T03:55:14;21.90;;;12.20;;
69410;SDS011;56604;48.652;9.194;2023-03-01T03:57:44;22.13;;;12.73;;
69410;SDS011;56604;48.652;9.194;2023-03-01T04:00:19;19.73;;;11.73;;
69410;SDS011;56604;48.652;9.194;2023-03-01T04:02:46;21.47;;;12.57;;
69410;SDS011;56604;48.652;9.194;2023-03-01T04:05:13;23.10;;;12.93;;
69410;SDS011;56604;48.652;9.194;2023-03-01T04:07:39;19.20;;;11.23;;
69410;SDS011;56604;48.652;9.194;2023-03-01T04:10:08;22.83;;;12.23;;
69410;SDS011;56604;48.652;9.194;2023-03-01T04:12:35;19.30;;;12.13;;
69410;SDS011;56604;48.652;9.194;2023-03-01T04:15:01;25.67;;;12.53;;
69410;SDS011;56604;48.652;9.194;2023-03-01T04:17:41;18.53;;;11.60;;
69410;SDS011;56604;48.652;9.194;2023-03-01T04:20:08;21.23;;;12.53;;
69410;SDS011;56604;48.652;9.194;2023-03-01T04:22:42;21.87;;;12.17;;
69410;SDS011;56604;48.652;9.194;2023-03-01T04:25:11;23.53;;;12.00;;
69410;SDS011;56604;48.652;9.194;2023-03-01T04:27:39;24.73;;;13.10;;
69410;SDS011;56604;48.652;9.194;2023-03-01T04:30:05;20.57;;;12.20;;
69410;SDS011;56604;48.652;9.194;2023-03-01T04:32:31;21.37;;;12.47;;
69410;SDS011;56604;48.652;9.194;2023-03-01T04:34:56;23.60;;;12.97;;
69410;SDS011;56604;48.652;9.194;2023-03-01T04:37:23;23.43;;;13.10;;
69410;SDS011;56604;48.652;9.194;2023-03-01T04:39:49;21.60;;;12.90;;
69410;SDS011;56604;48.652;9.194;2023-03-01T04:42:14;23.20;;;12.33;;
69410;SDS011;56604;48.652;9.194;2023-03-01T04:44:41;23.63;;;13.03;;
69410;SDS011;56604;48.652;9.194;2023-03-01T04:47:07;26.13;;;13.27;;
69410;SDS011;56604;48.652;9.194;2023-03-01T04:49:32;23.23;;;13.70;;
69410;SDS011;56604;48.652;9.194;2023-03-01T04:51:57;23.50;;;13.17;;
69410;SDS011;56604;48.652;9.194;2023-03-01T04:54:27;24.60;;;13.03;;
69410;SDS011;56604;48.652;9.194;2023-03-01T04:56:53;29.37;;;13.83;;
69410;SDS011;56604;48.652;9.194;2023-03-01T04:59:19;22.97;;;12.73;;
69410;SDS011;56604;48.652;9.194;2023-03-01T05:01:47;20.63;;;12.60;;
69410;SDS011;56604;48.652;9.194;2023-03-01T05:04:13;28.73;;;13.23;;
69410;SDS011;56604;48.652;9.194;2023-03-01T05:06:38;26.10;;;13.50;;
69410;SDS011;56604;48.652;9.194;2023-03-01T05:09:04;29.60;;;12.60;;
69410;SDS011;56604;48.652;9.194;2023-03-01T05:11:30;23.83;;;13.10;;
69410;SDS011;56604;48.652;9.194;2023-03-01T05:13:58;35.30;;;12.33;;
69410;SDS011;56604;48.652;9.194;2023-03-01T05:16:24;26.23;;;12.93;;
69410;SDS011;56604;48.652;9.194;2023-03-01T05:18:49;23.47;;;11.97;;
69410;SDS011;56604;48.652;9.194;2023-03-01T05:21:17;24.57;;;13.07;;
69410;SDS011;56604;48.652;9.194;2023-03-01T05:23:43;21.70;;;12.83;;
69410;SDS011;56604;48.652;9.194;2023-03-01T05:26:09;27.57;;;13.87;;
69410;SDS011;56604;48.652;9.194;2023-03-01T05:28:35;25.13;;;13.70;;
69410;SDS011;56604;48.652;9.194;2023-03-01T05:31:00;24.47;;;14.37;;
69410;SDS011;56604;48.652;9.194;2023-03-01T05:33:26;24.80;;;13.53;;
69410;SDS011;56604;48.652;9.194;2023-03-01T05:35:52;21.20;;;11.93;;
69410;SDS011;56604;48.652;9.194;2023-03-01T05:38:18;25.47;;;12.63;;
69410;SDS011;56604;48.652;9.194;2023-03-01T05:40:46;28.13;;;14.03;;
69410;SDS011;56604;48.652;9.194;2023-03-01T05:43:13;23.50;;;12.87;;
69410;SDS011;56604;48.652;9.194;2023-03-01T05:45:40;24.30;;;13.33;;
69410;SDS011;56604;48.652;9.194;2023-03-01T05:48:06;24.67;;;12.17;;
69410;SDS011;56604;48.652;9.194;2023-03-01T05:50:33;26.63;;;13.70;;
69410;SDS011;56604;48.652;9.194;2023-03-01T05:53:01;26.23;;;13.60;;
69410;SDS011;56604;48.652;9.194;2023-03-01T05:55:30;27.00;;;13.80;;
69410;SDS011;56604;48.652;9.194;2023-03-01T05:58:00;23.93;;;13.57;;
69410;SDS011;56604;48.652;9.194;2023-03-01T06:00:27;22.83;;;13.37;;
69410;SDS011;56604;48.652;9.194;2023-03-01T06:02:54;22.07;;;13.00;;
69410;SDS011;56604;48.652;9.194;2023-03-01T06:05:20;23.47;;;13.23;;
69410;SDS011;56604;48.652;9.194;2023-03-01T06:07:46;23.67;;;12.90;;
69410;SDS011;56604;48.652;9.194;2023-03-01T06:10:11;24.00;;;14.20;;
69410;SDS011;56604;48.652;9.194;2023-03-01T06:12:38;23.30;;;14.47;;
69410;SDS011;56604;48.652;9.194;2023-03-01T06:15:05;26.33;;;13.67;;
69410;SDS011;56604;48.652;9.194;2023-03-01T06:17:32;28.90;;;14.43;;
69410;SDS011;56604;48.652;9.194;2023-03-01T06:20:05;22.13;;;12.17;;
69410;SDS011;56604;48.652;9.194;2023-03-01T06:22:33;19.20;;;12.50;;
69410;SDS011;56604;48.652;9.194;2023-03-01T06:24:59;26.60;;;13.97;;
69410;SDS011;56604;48.652;9.194;2023-03-01T06:27:24;24.73;;;13.80;;
69410;SDS011;56604;48.652;9.194;2023-03-01T06:29:49;24.67;;;14.73;;
69410;SDS011;56604;48.652;9.194;2023-03-01T06:32:15;21.40;;;13.63;;
69410;SDS011;56604;48.652;9.194;2023-03-01T06:34:40;26.10;;;13.30;;
69410;SDS011;56604;48.652;9.194;2023-03-01T06:37:06;27.47;;;13.80;;
69410;SDS011;56604;48.652;9.194;2023-03-01T06:39:32;23.80;;;13.67;;
69410;SDS011;56604;48.652;9.194;2023-03-01T06:41:58;30.50;;;13.30;;
69410;SDS011;56604;48.652;9.194;2023-03-01T06:44:23;23.43;;;12.53;;
69410;SDS011;56604;48.652;9.194;2023-03-01T06:46:49;22.77;;;12.47;;
69410;SDS011;56604;48.652;9.194;2023-03-01T06:49:14;23.40;;;13.47;;
69410;SDS011;56604;48.652;9.194;2023-03-01T06:51:41;25.73;;;13.70;;
69410;SDS011;56604;48.652;9.194;2023-03-01T06:54:06;36.20;;;13.80;;
69410;SDS011;56604;48.652;9.194;2023-03-01T06:56:32;23.90;;;13.50;;
69410;SDS011;56604;48.652;9.194;2023-03-01T06:58:57;29.40;;;13.70;;
69410;SDS011;56604;48.652;9.194;2023-03-01T07:01:23;24.77;;;13.70;;
69410;SDS011;56604;48.652;9.194;2023-03-01T07:03:48;25.77;;;13.70;;
69410;SDS011;56604;48.652;9.194;2023-03-01T07:06:13;31.03;;;14.30;;
69410;SDS011;56604;48.652;9.194;2023-03-01T07:08:39;23.60;;;12.70;;
69410;SDS011;56604;48.652;9.194;2023-03-01T07:11:04;26.13;;;13.83;;
69410;SDS011;56604;48.652;9.194;2023-03-01T07:13:30;37.57;;;13.83;;
69410;SDS011;56604;48.652;9.194;2023-03-01T07:15:56;30.17;;;13.40;;
69410;SDS011;56604;48.652;9.194;2023-03-01T07:18:21;25.00;;;12.10;;
69410;SDS011;56604;48.652;9.194;2023-03-01T07:20:47;30.37;;;16.00;;
69410;SDS011;56604;48.652;9.194;2023-03-01T07:23:12;25.47;;;13.90;;
69410;SDS011;56604;48.652;9.194;2023-03-01T07:25:38;28.97;;;14.47;;
69410;SDS011;56604;48.652;9.194;2023-03-01T07:28:03;32.83;;;15.87;;
69410;SDS011;56604;48.652;9.194;2023-03-01T07:30:29;28.03;;;14.50;;
69410;SDS011;56604;48.652;9.194;2023-03-01T07:32:54;22.00;;;13.67;;
69410;SDS011;56604;48.652;9.194;2023-03-01T07:35:20;29.33;;;14.87;;
69410;SDS011;56604;48.652;9.194;2023-03-01T07:37:46;28.43;;;15.73;;
69410;SDS011;56604;48.652;9.194;2023-03-01T07:40:12;27.40;;;14.27;;
69410;SDS011;56604;48.652;9.194;2023-03-01T07:42:37;26.83;;;12.93;;
69410;SDS011;56604;48.652;9.194;2023-03-01T07:45:03;23.83;;;13.07;;
69410;SDS011;56604;48.652;9.194;2023-03-01T07:47:30;24.30;;;13.90;;
69410;SDS011;56604;48.652;9.194;2023-03-01T07:49:56;25.60;;;13.73;;
69410;SDS011;56604;48.652;9.194;2023-03-01T07:52:21;31.90;;;14.27;;
69410;SDS011;56604;48.652;9.194;2023-03-01T07:54:46;28.00;;;13.80;;
69410;SDS011;56604;48.652;9.194;2023-03-01T07:57:11;20.90;;;13.43;;
69410;SDS011;56604;48.652;9.194;2023-03-01T07:59:37;23.47;;;13.20;;
69410;SDS011;56604;48.652;9.194;2023-03-01T08:02:02;24.23;;;13.20;;
69410;SDS011;56604;48.652;9.194;2023-03-01T08:04:28;24.50;;;13.73;;
69410;SDS011;56604;48.652;9.194;2023-03-01T08:06:54;23.13;;;12.57;;
69410;SDS011;56604;48.652;9.194;2023-03-01T08:09:19;22.60;;;13.90;;
69410;SDS011;56604;48.652;9.194;2023-03-01T08:11:45;24.70;;;14.27;;
69410;SDS011;56604;48.652;9.194;2023-03-01T08:14:11;28.10;;;13.93;;
69410;SDS011;56604;48.652;9.194;2023-03-01T08:16:36;26.37;;;14.60;;
69410;SDS011;56604;48.652;9.194;2023-03-01T08:19:09;29.80;;;13.67;;
69410;SDS011;56604;48.652;9.194;2023-03-01T08:21:35;25.93;;;13.10;;
69410;SDS011;56604;48.652;9.194;2023-03-01T08:24:05;24.87;;;14.27;;
69410;SDS011;56604;48.652;9.194;2023-03-01T08:26:31;21.90;;;13.80;;
69410;SDS011;56604;48.652;9.194;2023-03-01T08:28:57;20.50;;;13.03;;
69410;SDS011;56604;48.652;9.194;2023-03-01T08:31:29;27.03;;;14.37;;
69410;SDS011;56604;48.652;9.194;2023-03-01T08:33:56;22.60;;;13.43;;
69410;SDS011;56604;48.652;9.194;2023-03-01T08:36:25;27.40;;;14.63;;
69410;SDS011;56604;48.652;9.194;2023-03-01T08:38:52;29.07;;;16.30;;
69410;SDS011;56604;48.652;9.194;2023-03-01T08:41:17;27.13;;;14.07;;
69410;SDS011;56604;48.652;9.194;2023-03-01T08:43:43;24.53;;;15.10;;
69410;SDS011;56604;48.652;9.194;2023-03-01T08:46:09;26.23;;;15.37;;
69410;SDS011;56604;48.652;9.194;2023-03-01T08:48:35;21.13;;;13.30;;
69410;SDS011;56604;48.652;9.194;2023-03-01T08:51:11;25.40;;;14.40;;
69410;SDS011;56604;48.652;9.194;2023-03-01T08:53:38;30.20;;;14.53;;
69410;SDS011;56604;48.652;9.194;2023-03-01T08:56:04;26.50;;;15.13;;
69410;SDS011;56604;48.652;9.194;2023-03-01T08:58:30;26.03;;;14.80;;
69410;SDS011;56604;48.652;9.194;2023-03-01T09:00:55;25.00;;;14.80;;
69410;SDS011;56604;48.652;9.194;2023-03-01T09:03:24;22.60;;;14.00;;
69410;SDS011;56604;48.652;9.194;2023-03-01T09:05:50;36.87;;;15.70;;
69410;SDS011;56604;48.652;9.194;2023-03-01T09:08:17;25.07;;;14.43;;
69410;SDS011;56604;48.652;9.194;2023-03-01T09:10:42;30.47;;;15.63;;
69410;SDS011;56604;48.652;9.194;2023-03-01T09:13:08;30.00;;;14.67;;
69410;SDS011;56604;48.652;9.194;2023-03-01T09:15:35;30.27;;;15.47;;
69410;SDS011;56604;48.652;9.194;2023-03-01T09:18:02;32.00;;;14.90;;
69410;SDS011;56604;48.652;9.194;2023-03-01T09:20:27;23.87;;;14.87;;
69410;SDS011;56604;48.652;9.194;2023-03-01T09:22:53;29.37;;;15.73;;
69410;SDS011;56604;48.652;9.194;2023-03-01T09:25:18;25.63;;;14.27;;
69410;SDS011;56604;48.652;9.194;2023-03-01T09:27:43;40.53;;;23.23;;
69410;SDS011;56604;48.652;9.194;2023-03-01T09:30:09;34.70;;;17.87;;
69410;SDS011;56604;48.652;9.194;2023-03-01T09:32:34;24.97;;;14.70;;
69410;SDS011;56604;48.652;9.194;2023-03-01T09:35:00;26.17;;;14.80;;
69410;SDS011;56604;48.652;9.194;2023-03-01T09:37:32;23.93;;;13.57;;
69410;SDS011;56604;48.652;9.194;2023-03-01T09:39:58;25.67;;;15.07;;
69410;SDS011;56604;48.652;9.194;2023-03-01T09:42:24;28.13;;;15.13;;
69410;SDS011;56604;48.652;9.194;2023-03-01T09:44:57;24.60;;;15.13;;
69410;SDS011;56604;48.652;9.194;2023-03-01T09:47:27;29.83;;;15.90;;
69410;SDS011;56604;48.652;9.194;2023-03-01T09:50:14;28.80;;;16.13;;
69410;SDS011;56604;48.652;9.194;2023-03-01T09:55:45;23.17;;;14.20;;
69410;SDS011;56604;48.652;9.194;2023-03-01T10:01:33;37.80;;;14.27;;
69410;SDS011;56604;48.652;9.194;2023-03-01T10:09:43;33.83;;;15.00;;
69410;SDS011;56604;48.652;9.194;2023-03-01T10:12:11;26.83;;;14.80;;
69410;SDS011;56604;48.652;9.194;2023-03-01T10:14:43;32.50;;;14.63;;
69410;SDS011;56604;48.652;9.194;2023-03-01T10:17:26;28.23;;;15.27;;
69410;SDS011;56604;48.652;9.194;2023-03-01T10:20:11;24.40;;;14.60;;
69410;SDS011;56604;48.652;9.194;2023-03-01T10:22:41;29.70;;;14.87;;
69410;SDS011;56604;48.652;9.194;2023-03-01T10:25:08;24.60;;;15.03;;
69410;SDS011;56604;48.652;9.194;2023-03-01T10:30:17;30.20;;;15.77;;
69410;SDS011;56604;48.652;9.194;2023-03-01T10:32:46;24.50;;;13.87;;
69410;SDS011;56604;48.652;9.194;2023-03-01T10:35:15;28.57;;;14.97;;
69410;SDS011;56604;48.652;9.194;2023-03-01T10:40:35;28.20;;;15.80;;
69410;SDS011;56604;48.652;9.194;2023-03-01T10:43:02;28.50;;;15.10;;
69410;SDS011;56604;48.652;9.194;2023-03-01T10:45:31;23.93;;;14.40;;
69410;SDS011;56604;48.652;9.194;2023-03-01T10:48:29;32.47;;;15.80;;
69410;SDS011;56604;48.652;9.194;2023-03-01T10:51:14;27.60;;;15.90;;
69410;SDS011;56604;48.652;9.194;2023-03-01T10:53:42;29.07;;;14.87;;
69410;SDS011;56604;48.652;9.194;2023-03-01T10:56:13;27.97;;;16.10;;
69410;SDS011;56604;48.652;9.194;2023-03-01T10:58:41;27.60;;;15.53;;
69410;SDS011;56604;48.652;9.194;2023-03-01T11:01:24;27.90;;;16.17;;
69410;SDS011;56604;48.652;9.194;2023-03-01T11:06:29;28.53;;;14.53;;
69410;SDS011;56604;48.652;9.194;2023-03-01T11:08:55;32.90;;;15.03;;
69410;SDS011;56604;48.652;9.194;2023-03-01T11:11:22;23.10;;;14.43;;
69410;SDS011;56604;48.652;9.194;2023-03-01T11:13:58;28.87;;;14.20;;
69410;SDS011;56604;48.652;9.194;2023-03-01T11:19:21;22.73;;;14.27;;
69410;SDS011;56604;48.652;9.194;2023-03-01T11:24:52;22.13;;;14.20;;
69410;SDS011;56604;48.652;9.194;2023-03-01T11:27:21;26.70;;;14.80;;
69410;SDS011;56604;48.652;9.194;2023-03-01T11:29:55;25.23;;;13.93;;
69410;SDS011;56604;48.652;9.194;2023-03-01T11:32:25;23.50;;;14.37;;
69410;SDS011;56604;48.652;9.194;2023-03-01T11:34:58;24.90;;;14.53;;
69410;SDS011;56604;48.652;9.194;2023-03-01T11:37:33;22.83;;;13.70;;
69410;SDS011;56604;48.652;9.194;2023-03-01T11:40:20;25.50;;;14.07;;
69410;SDS011;56604;48.652;9.194;2023-03-01T11:42:59;26.00;;;13.90;;
69410;SDS011;56604;48.652;9.194;2023-03-01T11:46:03;21.47;;;13.30;;
69410;SDS011;56604;48.652;9.194;2023-03-01T11:56:54;22.53;;;12.90;;
69410;SDS011;56604;48.652;9.194;2023-03-01T12:01:57;21.57;;;12.80;;
69410;SDS011;56604;48.652;9.194;2023-03-01T12:10:28;22.20;;;13.10;;
69410;SDS011;56604;48.652;9.194;2023-03-01T12:20:51;28.03;;;14.20;;
69410;SDS011;56604;48.652;9.194;2023-03-01T12:29:21;25.53;;;13.87;;
69410;SDS011;56604;48.652;9.194;2023-03-01T12:42:53;25.00;;;13.80;;
69410;SDS011;56604;48.652;9.194;2023-03-01T12:45:39;22.90;;;14.00;;
69410;SDS011;56604;48.652;9.194;2023-03-01T12:51:12;22.93;;;13.50;;
69410;SDS011;56604;48.652;9.194;2023-03-01T12:53:48;27.90;;;14.80;;
69410;SDS011;56604;48.652;9.194;2023-03-01T12:56:18;22.57;;;13.60;;
69410;SDS011;56604;48.652;9.194;2023-03-01T13:01:42;20.73;;;12.87;;
69410;SDS011;56604;48.652;9.194;2023-03-01T13:06:47;22.10;;;12.50;;
69410;SDS011;56604;48.652;9.194;2023-03-01T13:09:24;23.90;;;13.40;;
69410;SDS011;56604;48.652;9.194;2023-03-01T13:11:57;36.73;;;13.47;;
69410;SDS011;56604;48.652;9.194;2023-03-01T13:16:48;22.60;;;13.47;;
69410;SDS011;56604;48.652;9.194;2023-03-01T13:19:21;21.03;;;13.80;;
69410;SDS011;56604;48.652;9.194;2023-03-01T13:21:51;22.43;;;13.73;;
69410;SDS011;56604;48.652;9.194;2023-03-01T13:24:23;29.97;;;14.13;;
69410;SDS011;56604;48.652;9.194;2023-03-01T13:29:46;23.70;;;13.53;;
69410;SDS011;56604;48.652;9.194;2023-03-01T13:32:26;22.00;;;13.20;;
69410;SDS011;56604;48.652;9.194;2023-03-01T13:34:55;23.57;;;13.90;;
69410;SDS011;56604;48.652;9.194;2023-03-01T13:37:35;21.53;;;13.30;;
69410;SDS011;56604;48.652;9.194;2023-03-01T13:42:46;24.30;;;13.90;;
69410;SDS011;56604;48.652;9.194;2023-03-01T13:45:16;22.83;;;13.57;;
69410;SDS011;56604;48.652;9.194;2023-03-01T13:47:44;33.53;;;13.53;;
69410;SDS011;56604;48.652;9.194;2023-03-01T13:50:18;27.83;;;12.83;;
69410;SDS011;56604;48.652;9.194;2023-03-01T13:52:48;22.83;;;13.80;;
69410;SDS011;56604;48.652;9.194;2023-03-01T13:55:21;23.70;;;13.80;;
69410;SDS011;56604;48.652;9.194;2023-03-01T13:57:51;21.53;;;13.07;;
69410;SDS011;56604;48.652;9.194;2023-03-01T14:00:54;23.43;;;13.97;;
69410;SDS011;56604;48.652;9.194;2023-03-01T14:03:14;23.40;;;13.23;;
69410;SDS011;56604;48.652;9.194;2023-03-01T14:05:58;23.10;;;12.90;;
69410;SDS011;56604;48.652;9.194;2023-03-01T14:08:34;24.57;;;14.00;;
69410;SDS011;56604;48.652;9.194;2023-03-01T14:11:20;25.20;;;13.30;;
69410;SDS011;56604;48.652;9.194;2023-03-01T14:21:59;23.80;;;13.00;;
69410;SDS011;56604;48.652;9.194;2023-03-01T14:24:29;20.10;;;12.67;;
69410;SDS011;56604;48.652;9.194;2023-03-01T14:26:57;21.63;;;12.80;;
69410;SDS011;56604;48.652;9.194;2023-03-01T14:29:26;21.07;;;12.30;;
69410;SDS011;56604;48.652;9.194;2023-03-01T14:34:56;21.17;;;11.93;;
69410;SDS011;56604;48.652;9.194;2023-03-01T14:37:27;22.57;;;12.70;;
69410;SDS011;56604;48.652;9.194;2023-03-01T14:39:58;25.03;;;11.67;;
69410;SDS011;56604;48.652;9.194;2023-03-01T14:42:26;27.40;;;13.30;;
69410;SDS011;56604;48.652;9.194;2023-03-01T14:44:55;20.77;;;12.60;;
69410;SDS011;56604;48.652;9.194;2023-03-01T14:49:53;20.03;;;11.53;;
69410;SDS011;56604;48.652;9.194;2023-03-01T14:52:25;17.70;;;11.07;;
69410;SDS011;56604;48.652;9.194;2023-03-01T14:54:58;18.90;;;11.87;;
69410;SDS011;56604;48.652;9.194;2023-03-01T14:57:25;22.30;;;12.33;;
69410;SDS011;56604;48.652;9.194;2023-03-01T14:59:51;23.57;;;12.30;;
69410;SDS011;56604;48.652;9.194;2023-03-01T15:02:20;26.87;;;14.07;;
69410;SDS011;56604;48.652;9.194;2023-03-01T15:04:49;22.90;;;13.43;;
69410;SDS011;56604;48.652;9.194;2023-03-01T15:07:17;23.13;;;12.27;;
69410;SDS011;56604;48.652;9.194;2023-03-01T15:09:43;19.93;;;12.20;;
69410;SDS011;56604;48.652;9.194;2023-03-01T15:14:54;28.60;;;14.43;;
69410;SDS011;56604;48.652;9.194;2023-03-01T15:17:26;23.87;;;13.13;;
69410;SDS011;56604;48.652;9.194;2023-03-01T15:19:57;21.53;;;13.77;;
69410;SDS011;56604;48.652;9.194;2023-03-01T15:22:23;26.70;;;13.50;;
69410;SDS011;56604;48.652;9.194;2023-03-01T15:24:51;29.37;;;13.33;;
69410;SDS011;56604;48.652;9.194;2023-03-01T15:27:19;23.67;;;13.53;;
69410;SDS011;56604;48.652;9.194;2023-03-01T15:29:55;29.73;;;14.07;;
69410;SDS011;56604;48.652;9.194;2023-03-01T15:32:27;32.53;;;14.83;;
69410;SDS011;56604;48.652;9.194;2023-03-01T15:34:53;22.17;;;12.63;;
69410;SDS011;56604;48.652;9.194;2023-03-01T15:43:00;21.63;;;13.43;;
69410;SDS011;56604;48.652;9.194;2023-03-01T15:45:27;33.50;;;13.43;;
69410;SDS011;56604;48.652;9.194;2023-03-01T15:50:35;26.27;;;12.87;;
69410;SDS011;56604;48.652;9.194;2023-03-01T15:53:05;22.50;;;13.40;;
69410;SDS011;56604;48.652;9.194;2023-03-01T15:55:33;19.60;;;12.50;;
69410;SDS011;56604;48.652;9.194;2023-03-01T16:00:38;24.00;;;13.20;;
69410;SDS011;56604;48.652;9.194;2023-03-01T16:03:04;21.10;;;11.97;;
69410;SDS011;56604;48.652;9.194;2023-03-01T16:05:32;23.40;;;12.47;;
69410;SDS011;56604;48.652;9.194;2023-03-01T16:07:59;22.70;;;12.50;;
69410;SDS011;56604;48.652;9.194;2023-03-01T16:10:26;23.00;;;13.47;;
69410;SDS011;56604;48.652;9.194;2023-03-01T16:12:52;23.73;;;12.37;;
69410;SDS011;56604;48.652;9.194;2023-03-01T16:15:19;21.73;;;12.40;;
69410;SDS011;56604;48.652;9.194;2023-03-01T16:17:48;25.30;;;12.40;;
69410;SDS011;56604;48.652;9.194;2023-03-01T16:20:14;34.33;;;12.87;;
69410;SDS011;56604;48.652;9.194;2023-03-01T16:22:41;23.07;;;11.70;;
69410;SDS011;56604;48.652;9.194;2023-03-01T16:25:10;35.00;;;13.57;;
69410;SDS011;56604;48.652;9.194;2023-03-01T16:27:37;21.13;;;11.00;;
69410;SDS011;56604;48.652;9.194;2023-03-01T16:30:04;17.47;;;11.43;;